<?xml version="1.0" encoding="UTF-8" standalone="no" ?>
<gpx xmlns="http://www.topografix.com/GPX/1/1" xmlns:xsi="http://www.w3.org/2001/XMLSchema-instance" xsi:schemaLocation="http://www.topografix.com/GPX/1/1 http://www.topografix.com/GPX/1/1/gpx.xsd" version="1.1" creator="VisuGPX - https://www.visugpx.com">
  <metadata>
    <name>Sautron_Autour_8-10km</name>
    <desc><![CDATA[gnerando idor8372687_6691475_6690164_8372687]]></desc>
  </metadata>
  <trk>
    <name><![CDATA[Sautron_HubonniereGouletsLandes_8.5km-6691475]]></name>
    <extensions>
      <line xmlns="http://www.topografix.com/GPX/gpx_style/0/2">
        <color>00FF00</color>
        <width>4</width>
      </line>
    </extensions>
    <trkseg>
      <trkpt lat="47.2685" lon="-1.6714">
        <ele>40</ele>
        <time>2023-11-13T11:15:16Z</time>
      </trkpt>
      <trkpt lat="47.26894" lon="-1.67141">
        <ele>41</ele>
        <time>2023-11-13T11:16:15Z</time>
      </trkpt>
      <trkpt lat="47.26931" lon="-1.66912">
        <ele>43</ele>
        <time>2023-11-13T11:19:48Z</time>
      </trkpt>
      <trkpt lat="47.26905" lon="-1.66814">
        <ele>42</ele>
        <time>2023-11-13T11:21:23Z</time>
      </trkpt>
      <trkpt lat="47.26828" lon="-1.66751">
        <ele>39</ele>
        <time>2023-11-13T11:23:21Z</time>
      </trkpt>
      <trkpt lat="47.26757" lon="-1.66601">
        <ele>42</ele>
        <time>2023-11-13T11:26:06Z</time>
      </trkpt>
      <trkpt lat="47.26745" lon="-1.666">
        <ele>42</ele>
        <time>2023-11-13T11:26:22Z</time>
      </trkpt>
      <trkpt lat="47.2672" lon="-1.66622">
        <ele>45</ele>
        <time>2023-11-13T11:27:01Z</time>
      </trkpt>
      <trkpt lat="47.26691" lon="-1.66594">
        <ele>46</ele>
        <time>2023-11-13T11:27:47Z</time>
      </trkpt>
      <trkpt lat="47.2667" lon="-1.66546">
        <ele>46</ele>
        <time>2023-11-13T11:28:39Z</time>
      </trkpt>
      <trkpt lat="47.26673" lon="-1.66533">
        <ele>45</ele>
        <time>2023-11-13T11:28:52Z</time>
      </trkpt>
      <trkpt lat="47.26602" lon="-1.66244">
        <ele>40</ele>
        <time>2023-11-13T11:33:30Z</time>
      </trkpt>
      <trkpt lat="47.26623" lon="-1.66167">
        <ele>41</ele>
        <time>2023-11-13T11:34:45Z</time>
      </trkpt>
      <trkpt lat="47.26651" lon="-1.66132">
        <ele>44</ele>
        <time>2023-11-13T11:35:34Z</time>
      </trkpt>
      <trkpt lat="47.26618" lon="-1.66063">
        <ele>43</ele>
        <time>2023-11-13T11:36:51Z</time>
      </trkpt>
      <trkpt lat="47.26539" lon="-1.66046">
        <ele>36</ele>
        <time>2023-11-13T11:38:37Z</time>
      </trkpt>
      <trkpt lat="47.26518" lon="-1.65964">
        <ele>33</ele>
        <time>2023-11-13T11:39:56Z</time>
      </trkpt>
      <trkpt lat="47.26519" lon="-1.65858">
        <ele>36</ele>
        <time>2023-11-13T11:41:32Z</time>
      </trkpt>
      <trkpt lat="47.26495" lon="-1.65798">
        <ele>40</ele>
        <time>2023-11-13T11:42:36Z</time>
      </trkpt>
      <trkpt lat="47.26513" lon="-1.65725">
        <ele>44</ele>
        <time>2023-11-13T11:43:46Z</time>
      </trkpt>
      <trkpt lat="47.26586" lon="-1.65701">
        <ele>43</ele>
        <time>2023-11-13T11:45:26Z</time>
      </trkpt>
      <trkpt lat="47.26586" lon="-1.65602">
        <ele>46</ele>
        <time>2023-11-13T11:46:55Z</time>
      </trkpt>
      <trkpt lat="47.26631" lon="-1.65601">
        <ele>46</ele>
        <time>2023-11-13T11:47:55Z</time>
      </trkpt>
      <trkpt lat="47.26678" lon="-1.65613">
        <ele>43</ele>
        <time>2023-11-13T11:48:59Z</time>
      </trkpt>
      <trkpt lat="47.2673" lon="-1.65607">
        <ele>38</ele>
        <time>2023-11-13T11:50:09Z</time>
      </trkpt>
      <trkpt lat="47.26765" lon="-1.65558">
        <ele>37</ele>
        <time>2023-11-13T11:51:13Z</time>
      </trkpt>
      <trkpt lat="47.26844" lon="-1.65528">
        <ele>32</ele>
        <time>2023-11-13T11:53:02Z</time>
      </trkpt>
      <trkpt lat="47.26887" lon="-1.65592">
        <ele>37</ele>
        <time>2023-11-13T11:54:23Z</time>
      </trkpt>
      <trkpt lat="47.2695" lon="-1.6561">
        <ele>43</ele>
        <time>2023-11-13T11:55:49Z</time>
      </trkpt>
      <trkpt lat="47.27046" lon="-1.65647">
        <ele>48</ele>
        <time>2023-11-13T11:58:02Z</time>
      </trkpt>
      <trkpt lat="47.27109" lon="-1.65633">
        <ele>50</ele>
        <time>2023-11-13T11:59:27Z</time>
      </trkpt>
      <trkpt lat="47.27224" lon="-1.65631">
        <ele>53</ele>
        <time>2023-11-13T12:02:00Z</time>
      </trkpt>
      <trkpt lat="47.27289" lon="-1.65689">
        <ele>54</ele>
        <time>2023-11-13T12:03:41Z</time>
      </trkpt>
      <trkpt lat="47.27378" lon="-1.65844">
        <ele>59</ele>
        <time>2023-11-13T12:06:45Z</time>
      </trkpt>
      <trkpt lat="47.27458" lon="-1.65935">
        <ele>65</ele>
        <time>2023-11-13T12:09:00Z</time>
      </trkpt>
      <trkpt lat="47.27518" lon="-1.65893">
        <ele>66</ele>
        <time>2023-11-13T12:10:29Z</time>
      </trkpt>
      <trkpt lat="47.27609" lon="-1.65849">
        <ele>65</ele>
        <time>2023-11-13T12:12:37Z</time>
      </trkpt>
      <trkpt lat="47.27699" lon="-1.65892">
        <ele>65</ele>
        <time>2023-11-13T12:14:43Z</time>
      </trkpt>
      <trkpt lat="47.27818" lon="-1.6595">
        <ele>65</ele>
        <time>2023-11-13T12:17:30Z</time>
      </trkpt>
      <trkpt lat="47.27924" lon="-1.66007">
        <ele>65</ele>
        <time>2023-11-13T12:20:01Z</time>
      </trkpt>
      <trkpt lat="47.27952" lon="-1.66085">
        <ele>65</ele>
        <time>2023-11-13T12:21:21Z</time>
      </trkpt>
      <trkpt lat="47.28128" lon="-1.66084">
        <ele>64</ele>
        <time>2023-11-13T12:25:15Z</time>
      </trkpt>
      <trkpt lat="47.28186" lon="-1.66382">
        <ele>63</ele>
        <time>2023-11-13T12:29:56Z</time>
      </trkpt>
      <trkpt lat="47.27989" lon="-1.66504">
        <ele>64</ele>
        <time>2023-11-13T12:34:41Z</time>
      </trkpt>
      <trkpt lat="47.28098" lon="-1.66648">
        <ele>62</ele>
        <time>2023-11-13T12:37:57Z</time>
      </trkpt>
      <trkpt lat="47.2804" lon="-1.66937">
        <ele>62</ele>
        <time>2023-11-13T12:42:29Z</time>
      </trkpt>
      <trkpt lat="47.2799" lon="-1.67176">
        <ele>62</ele>
        <time>2023-11-13T12:46:16Z</time>
      </trkpt>
      <trkpt lat="47.27923" lon="-1.67419">
        <ele>62</ele>
        <time>2023-11-13T12:50:13Z</time>
      </trkpt>
      <trkpt lat="47.2801" lon="-1.67473">
        <ele>59</ele>
        <time>2023-11-13T12:52:19Z</time>
      </trkpt>
      <trkpt lat="47.27991" lon="-1.67744">
        <ele>57</ele>
        <time>2023-11-13T12:56:26Z</time>
      </trkpt>
      <trkpt lat="47.27869" lon="-1.67773">
        <ele>59</ele>
        <time>2023-11-13T12:59:11Z</time>
      </trkpt>
      <trkpt lat="47.27827" lon="-1.67767">
        <ele>61</ele>
        <time>2023-11-13T13:00:07Z</time>
      </trkpt>
      <trkpt lat="47.27721" lon="-1.67888">
        <ele>59</ele>
        <time>2023-11-13T13:03:06Z</time>
      </trkpt>
      <trkpt lat="47.2763" lon="-1.68015">
        <ele>62</ele>
        <time>2023-11-13T13:05:53Z</time>
      </trkpt>
      <trkpt lat="47.2763" lon="-1.68108">
        <ele>61</ele>
        <time>2023-11-13T13:07:17Z</time>
      </trkpt>
      <trkpt lat="47.27629" lon="-1.68165">
        <ele>62</ele>
        <time>2023-11-13T13:08:09Z</time>
      </trkpt>
      <trkpt lat="47.27673" lon="-1.68289">
        <ele>62</ele>
        <time>2023-11-13T13:10:16Z</time>
      </trkpt>
      <trkpt lat="47.27673" lon="-1.68427">
        <ele>60</ele>
        <time>2023-11-13T13:12:21Z</time>
      </trkpt>
      <trkpt lat="47.2769" lon="-1.68482">
        <ele>60</ele>
        <time>2023-11-13T13:13:15Z</time>
      </trkpt>
      <trkpt lat="47.2774" lon="-1.68538">
        <ele>55</ele>
        <time>2023-11-13T13:14:39Z</time>
      </trkpt>
      <trkpt lat="47.27744" lon="-1.68601">
        <ele>51</ele>
        <time>2023-11-13T13:15:37Z</time>
      </trkpt>
      <trkpt lat="47.27671" lon="-1.68644">
        <ele>53</ele>
        <time>2023-11-13T13:17:21Z</time>
      </trkpt>
      <trkpt lat="47.27615" lon="-1.68652">
        <ele>52</ele>
        <time>2023-11-13T13:18:37Z</time>
      </trkpt>
      <trkpt lat="47.27585" lon="-1.68634">
        <ele>52</ele>
        <time>2023-11-13T13:19:20Z</time>
      </trkpt>
      <trkpt lat="47.27538" lon="-1.68578">
        <ele>52</ele>
        <time>2023-11-13T13:20:40Z</time>
      </trkpt>
      <trkpt lat="47.2747" lon="-1.68485">
        <ele>48</ele>
        <time>2023-11-13T13:22:44Z</time>
      </trkpt>
      <trkpt lat="47.27357" lon="-1.68643">
        <ele>54</ele>
        <time>2023-11-13T13:26:12Z</time>
      </trkpt>
      <trkpt lat="47.27323" lon="-1.68694">
        <ele>56</ele>
        <time>2023-11-13T13:27:17Z</time>
      </trkpt>
      <trkpt lat="47.27255" lon="-1.6874">
        <ele>61</ele>
        <time>2023-11-13T13:28:57Z</time>
      </trkpt>
      <trkpt lat="47.27214" lon="-1.68799">
        <ele>64</ele>
        <time>2023-11-13T13:30:13Z</time>
      </trkpt>
      <trkpt lat="47.2717" lon="-1.68873">
        <ele>67</ele>
        <time>2023-11-13T13:31:42Z</time>
      </trkpt>
      <trkpt lat="47.27157" lon="-1.68867">
        <ele>67</ele>
        <time>2023-11-13T13:32:00Z</time>
      </trkpt>
      <trkpt lat="47.27119" lon="-1.68811">
        <ele>67</ele>
        <time>2023-11-13T13:33:12Z</time>
      </trkpt>
      <trkpt lat="47.27078" lon="-1.68776">
        <ele>66</ele>
        <time>2023-11-13T13:34:15Z</time>
      </trkpt>
      <trkpt lat="47.27114" lon="-1.68704">
        <ele>65</ele>
        <time>2023-11-13T13:35:36Z</time>
      </trkpt>
      <trkpt lat="47.27074" lon="-1.68621">
        <ele>64</ele>
        <time>2023-11-13T13:37:08Z</time>
      </trkpt>
      <trkpt lat="47.27099" lon="-1.68553">
        <ele>61</ele>
        <time>2023-11-13T13:38:19Z</time>
      </trkpt>
      <trkpt lat="47.27098" lon="-1.68513">
        <ele>59</ele>
        <time>2023-11-13T13:38:55Z</time>
      </trkpt>
      <trkpt lat="47.27168" lon="-1.685">
        <ele>57</ele>
        <time>2023-11-13T13:40:29Z</time>
      </trkpt>
      <trkpt lat="47.27211" lon="-1.68429">
        <ele>55</ele>
        <time>2023-11-13T13:41:55Z</time>
      </trkpt>
      <trkpt lat="47.27139" lon="-1.68277">
        <ele>47</ele>
        <time>2023-11-13T13:44:43Z</time>
      </trkpt>
      <trkpt lat="47.27068" lon="-1.68175">
        <ele>49</ele>
        <time>2023-11-13T13:46:55Z</time>
      </trkpt>
      <trkpt lat="47.27078" lon="-1.68138">
        <ele>46</ele>
        <time>2023-11-13T13:47:31Z</time>
      </trkpt>
      <trkpt lat="47.27031" lon="-1.68027">
        <ele>53</ele>
        <time>2023-11-13T13:49:30Z</time>
      </trkpt>
      <trkpt lat="47.27039" lon="-1.67914">
        <ele>52</ele>
        <time>2023-11-13T13:51:13Z</time>
      </trkpt>
      <trkpt lat="47.27103" lon="-1.67742">
        <ele>49</ele>
        <time>2023-11-13T13:54:10Z</time>
      </trkpt>
      <trkpt lat="47.27101" lon="-1.67638">
        <ele>47</ele>
        <time>2023-11-13T13:55:44Z</time>
      </trkpt>
      <trkpt lat="47.2707" lon="-1.67475">
        <ele>42</ele>
        <time>2023-11-13T13:58:18Z</time>
      </trkpt>
      <trkpt lat="47.27071" lon="-1.67353">
        <ele>39</ele>
        <time>2023-11-13T14:00:08Z</time>
      </trkpt>
      <trkpt lat="47.27116" lon="-1.67354">
        <ele>41</ele>
        <time>2023-11-13T14:01:08Z</time>
      </trkpt>
      <trkpt lat="47.27136" lon="-1.67252">
        <ele>44</ele>
        <time>2023-11-13T14:02:44Z</time>
      </trkpt>
      <trkpt lat="47.27104" lon="-1.67193">
        <ele>46</ele>
        <time>2023-11-13T14:03:53Z</time>
      </trkpt>
      <trkpt lat="47.27053" lon="-1.67182">
        <ele>44</ele>
        <time>2023-11-13T14:05:02Z</time>
      </trkpt>
      <trkpt lat="47.26987" lon="-1.67183">
        <ele>41</ele>
        <time>2023-11-13T14:06:30Z</time>
      </trkpt>
      <trkpt lat="47.26926" lon="-1.67199">
        <ele>41</ele>
        <time>2023-11-13T14:07:52Z</time>
      </trkpt>
    </trkseg>
  </trk>
</gpx>